sensor_id;sensor_type;location;lat;lon;timestamp;temperature;humidity
8676;DHT22;4375;52.486;13.424;2023-07-31T00:00:14;16.60;99.90
8676;DHT22;4375;52.486;13.424;2023-07-31T00:02:40;16.50;99.90
8676;DHT22;4375;52.486;13.424;2023-07-31T00:05:08;16.40;99.90
8676;DHT22;4375;52.486;13.424;2023-07-31T00:07:34;16.30;99.90
8676;DHT22;4375;52.486;13.424;2023-07-31T00:10:00;16.30;99.90
8676;DHT22;4375;52.486;13.424;2023-07-31T00:12:25;16.20;99.90
8676;DHT22;4375;52.486;13.424;2023-07-31T00:14:51;16.20;99.90
8676;DHT22;4375;52.486;13.424;2023-07-31T00:17:17;16.10;99.90
8676;DHT22;4375;52.486;13.424;2023-07-31T00:19:43;16.10;99.90
8676;DHT22;4375;52.486;13.424;2023-07-31T00:22:11;16.10;99.90
8676;DHT22;4375;52.486;13.424;2023-07-31T00:24:37;16.00;99.90
8676;DHT22;4375;52.486;13.424;2023-07-31T00:27:02;16.00;99.90
8676;DHT22;4375;52.486;13.424;2023-07-31T00:29:28;16.00;99.90
8676;DHT22;4375;52.486;13.424;2023-07-31T00:31:54;16.00;99.90
8676;DHT22;4375;52.486;13.424;2023-07-31T00:34:19;16.00;99.90
8676;DHT22;4375;52.486;13.424;2023-07-31T00:36:45;16.10;99.90
8676;DHT22;4375;52.486;13.424;2023-07-31T00:39:10;16.00;99.90
8676;DHT22;4375;52.486;13.424;2023-07-31T00:41:36;16.10;99.90
8676;DHT22;4375;52.486;13.424;2023-07-31T00:44:02;16.10;99.90
8676;DHT22;4375;52.486;13.424;2023-07-31T00:46:27;16.20;99.90
8676;DHT22;4375;52.486;13.424;2023-07-31T00:48:53;16.20;99.90
8676;DHT22;4375;52.486;13.424;2023-07-31T00:51:18;16.40;99.90
8676;DHT22;4375;52.486;13.424;2023-07-31T00:53:45;16.30;99.90
8676;DHT22;4375;52.486;13.424;2023-07-31T00:56:12;16.30;99.90
8676;DHT22;4375;52.486;13.424;2023-07-31T00:58:38;16.30;99.90
8676;DHT22;4375;52.486;13.424;2023-07-31T01:01:03;16.30;99.90
8676;DHT22;4375;52.486;13.424;2023-07-31T01:03:29;16.40;99.90
8676;DHT22;4375;52.486;13.424;2023-07-31T01:08:33;16.50;99.90
8676;DHT22;4375;52.486;13.424;2023-07-31T01:11:17;16.40;99.90
8676;DHT22;4375;52.486;13.424;2023-07-31T01:13:45;16.40;99.90
8676;DHT22;4375;52.486;13.424;2023-07-31T01:16:11;16.40;99.90
8676;DHT22;4375;52.486;13.424;2023-07-31T01:18:37;16.40;99.90
8676;DHT22;4375;52.486;13.424;2023-07-31T01:22:11;16.40;99.90
8676;DHT22;4375;52.486;13.424;2023-07-31T01:24:22;16.40;99.90
8676;DHT22;4375;52.486;13.424;2023-07-31T01:27:40;16.40;99.90
8676;DHT22;4375;52.486;13.424;2023-07-31T01:32:29;16.50;99.90
8676;DHT22;4375;52.486;13.424;2023-07-31T01:34:57;16.40;99.90
8676;DHT22;4375;52.486;13.424;2023-07-31T01:37:28;16.40;99.90
8676;DHT22;4375;52.486;13.424;2023-07-31T01:39:54;16.40;99.90
8676;DHT22;4375;52.486;13.424;2023-07-31T01:42:19;16.40;99.90
8676;DHT22;4375;52.486;13.424;2023-07-31T01:44:45;16.30;99.90
8676;DHT22;4375;52.486;13.424;2023-07-31T01:47:11;16.50;99.90
8676;DHT22;4375;52.486;13.424;2023-07-31T01:49:36;16.50;99.90
8676;DHT22;4375;52.486;13.424;2023-07-31T01:52:02;16.60;99.90
8676;DHT22;4375;52.486;13.424;2023-07-31T01:54:27;16.60;99.90
8676;DHT22;4375;52.486;13.424;2023-07-31T01:56:53;16.60;99.90
8676;DHT22;4375;52.486;13.424;2023-07-31T01:59:18;16.60;99.90
8676;DHT22;4375;52.486;13.424;2023-07-31T02:01:44;16.60;99.90
8676;DHT22;4375;52.486;13.424;2023-07-31T02:04:10;16.60;99.90
8676;DHT22;4375;52.486;13.424;2023-07-31T02:06:35;16.60;99.90
8676;DHT22;4375;52.486;13.424;2023-07-31T02:09:01;16.60;99.90
8676;DHT22;4375;52.486;13.424;2023-07-31T02:11:27;16.60;99.90
8676;DHT22;4375;52.486;13.424;2023-07-31T02:13:52;16.70;99.90
8676;DHT22;4375;52.486;13.424;2023-07-31T02:16:18;16.60;99.90
8676;DHT22;4375;52.486;13.424;2023-07-31T02:18:43;16.70;99.90
8676;DHT22;4375;52.486;13.424;2023-07-31T02:21:09;16.60;99.90
8676;DHT22;4375;52.486;13.424;2023-07-31T02:23:35;16.70;99.90
8676;DHT22;4375;52.486;13.424;2023-07-31T02:26:00;16.70;99.90
8676;DHT22;4375;52.486;13.424;2023-07-31T02:28:26;16.70;99.90
8676;DHT22;4375;52.486;13.424;2023-07-31T02:30:51;16.70;99.90
8676;DHT22;4375;52.486;13.424;2023-07-31T02:33:17;16.70;99.90
8676;DHT22;4375;52.486;13.424;2023-07-31T02:35:43;16.70;99.90
8676;DHT22;4375;52.486;13.424;2023-07-31T02:38:09;16.70;99.90
8676;DHT22;4375;52.486;13.424;2023-07-31T02:40:34;16.70;99.90
8676;DHT22;4375;52.486;13.424;2023-07-31T02:43:00;16.70;99.90
8676;DHT22;4375;52.486;13.424;2023-07-31T02:45:25;16.70;99.90
8676;DHT22;4375;52.486;13.424;2023-07-31T02:47:51;16.80;99.90
8676;DHT22;4375;52.486;13.424;2023-07-31T02:50:16;16.80;99.90
8676;DHT22;4375;52.486;13.424;2023-07-31T02:52:42;16.80;99.90
8676;DHT22;4375;52.486;13.424;2023-07-31T02:55:08;16.70;99.90
8676;DHT22;4375;52.486;13.424;2023-07-31T02:57:33;16.80;99.90
8676;DHT22;4375;52.486;13.424;2023-07-31T02:59:59;16.80;99.90
8676;DHT22;4375;52.486;13.424;2023-07-31T03:02:24;16.80;99.90
8676;DHT22;4375;52.486;13.424;2023-07-31T03:04:50;16.80;99.90
8676;DHT22;4375;52.486;13.424;2023-07-31T03:07:16;16.70;99.90
8676;DHT22;4375;52.486;13.424;2023-07-31T03:09:41;16.70;99.90
8676;DHT22;4375;52.486;13.424;2023-07-31T03:12:07;16.60;99.90
8676;DHT22;4375;52.486;13.424;2023-07-31T03:14:33;16.60;99.90
8676;DHT22;4375;52.486;13.424;2023-07-31T03:16:59;16.60;99.90
8676;DHT22;4375;52.486;13.424;2023-07-31T03:19:25;16.50;99.90
8676;DHT22;4375;52.486;13.424;2023-07-31T03:21:50;16.50;99.90
8676;DHT22;4375;52.486;13.424;2023-07-31T03:24:16;16.60;99.90
8676;DHT22;4375;52.486;13.424;2023-07-31T03:26:41;16.50;99.90
8676;DHT22;4375;52.486;13.424;2023-07-31T03:29:08;16.50;99.90
8676;DHT22;4375;52.486;13.424;2023-07-31T03:31:34;16.50;99.90
8676;DHT22;4375;52.486;13.424;2023-07-31T03:33:59;16.50;99.90
8676;DHT22;4375;52.486;13.424;2023-07-31T03:36:25;16.60;99.90
8676;DHT22;4375;52.486;13.424;2023-07-31T03:38:51;16.50;99.90
8676;DHT22;4375;52.486;13.424;2023-07-31T03:41:17;16.50;99.90
8676;DHT22;4375;52.486;13.424;2023-07-31T03:43:45;16.50;99.90
8676;DHT22;4375;52.486;13.424;2023-07-31T03:46:10;16.50;99.90
8676;DHT22;4375;52.486;13.424;2023-07-31T03:48:36;16.60;99.90
8676;DHT22;4375;52.486;13.424;2023-07-31T03:51:02;16.50;99.90
8676;DHT22;4375;52.486;13.424;2023-07-31T03:53:27;16.50;99.90
8676;DHT22;4375;52.486;13.424;2023-07-31T03:55:53;16.50;99.90
8676;DHT22;4375;52.486;13.424;2023-07-31T03:58:18;16.40;99.90
8676;DHT22;4375;52.486;13.424;2023-07-31T04:00:46;16.40;99.90
8676;DHT22;4375;52.486;13.424;2023-07-31T04:03:12;16.40;99.90
8676;DHT22;4375;52.486;13.424;2023-07-31T04:05:38;16.40;99.90
8676;DHT22;4375;52.486;13.424;2023-07-31T04:08:04;16.40;99.90
8676;DHT22;4375;52.486;13.424;2023-07-31T04:10:30;16.40;99.90
8676;DHT22;4375;52.486;13.424;2023-07-31T04:12:56;16.40;99.90
8676;DHT22;4375;52.486;13.424;2023-07-31T04:15:22;16.50;99.90
8676;DHT22;4375;52.486;13.424;2023-07-31T04:17:48;16.60;99.90
8676;DHT22;4375;52.486;13.424;2023-07-31T04:20:13;16.60;99.90
8676;DHT22;4375;52.486;13.424;2023-07-31T04:22:39;16.60;99.90
8676;DHT22;4375;52.486;13.424;2023-07-31T04:25:05;16.60;99.90
8676;DHT22;4375;52.486;13.424;2023-07-31T04:27:31;16.60;99.90
8676;DHT22;4375;52.486;13.424;2023-07-31T04:29:56;16.60;99.90
8676;DHT22;4375;52.486;13.424;2023-07-31T04:32:22;16.60;99.90
8676;DHT22;4375;52.486;13.424;2023-07-31T04:34:48;16.60;99.90
8676;DHT22;4375;52.486;13.424;2023-07-31T04:37:13;16.70;99.90
8676;DHT22;4375;52.486;13.424;2023-07-31T04:39:39;16.60;99.90
8676;DHT22;4375;52.486;13.424;2023-07-31T04:42:05;16.70;99.90
8676;DHT22;4375;52.486;13.424;2023-07-31T04:44:31;16.60;99.90
8676;DHT22;4375;52.486;13.424;2023-07-31T04:46:56;16.70;99.90
8676;DHT22;4375;52.486;13.424;2023-07-31T04:49:22;16.80;99.90
8676;DHT22;4375;52.486;13.424;2023-07-31T04:51:47;16.80;99.90
8676;DHT22;4375;52.486;13.424;2023-07-31T04:54:13;16.80;99.90
8676;DHT22;4375;52.486;13.424;2023-07-31T04:56:40;16.70;99.90
8676;DHT22;4375;52.486;13.424;2023-07-31T04:59:06;16.70;99.90
8676;DHT22;4375;52.486;13.424;2023-07-31T05:01:32;16.70;99.90
8676;DHT22;4375;52.486;13.424;2023-07-31T05:03:58;16.70;99.90
8676;DHT22;4375;52.486;13.424;2023-07-31T05:06:23;16.70;99.90
8676;DHT22;4375;52.486;13.424;2023-07-31T05:08:49;16.70;99.90
8676;DHT22;4375;52.486;13.424;2023-07-31T05:11:15;16.80;99.90
8676;DHT22;4375;52.486;13.424;2023-07-31T05:13:40;17.00;99.90
8676;DHT22;4375;52.486;13.424;2023-07-31T05:16:06;16.90;99.90
8676;DHT22;4375;52.486;13.424;2023-07-31T05:18:32;16.90;99.90
8676;DHT22;4375;52.486;13.424;2023-07-31T05:20:57;17.10;99.90
8676;DHT22;4375;52.486;13.424;2023-07-31T05:23:23;17.20;99.90
8676;DHT22;4375;52.486;13.424;2023-07-31T05:25:49;17.30;99.90
8676;DHT22;4375;52.486;13.424;2023-07-31T05:28:14;17.30;99.90
8676;DHT22;4375;52.486;13.424;2023-07-31T05:30:40;17.30;99.90
8676;DHT22;4375;52.486;13.424;2023-07-31T05:33:05;17.30;99.90
8676;DHT22;4375;52.486;13.424;2023-07-31T05:35:31;17.30;99.90
8676;DHT22;4375;52.486;13.424;2023-07-31T05:37:57;17.40;99.90
8676;DHT22;4375;52.486;13.424;2023-07-31T05:40:22;17.40;99.90
8676;DHT22;4375;52.486;13.424;2023-07-31T05:42:48;17.30;99.90
8676;DHT22;4375;52.486;13.424;2023-07-31T05:45:13;17.30;99.90
8676;DHT22;4375;52.486;13.424;2023-07-31T05:47:39;17.20;99.90
8676;DHT22;4375;52.486;13.424;2023-07-31T05:50:05;17.20;99.90
8676;DHT22;4375;52.486;13.424;2023-07-31T05:52:31;17.20;99.90
8676;DHT22;4375;52.486;13.424;2023-07-31T05:54:57;17.10;99.90
8676;DHT22;4375;52.486;13.424;2023-07-31T05:57:22;17.10;99.90
8676;DHT22;4375;52.486;13.424;2023-07-31T05:59:48;17.10;99.90
8676;DHT22;4375;52.486;13.424;2023-07-31T06:02:14;17.10;99.90
8676;DHT22;4375;52.486;13.424;2023-07-31T06:04:39;17.10;99.90
8676;DHT22;4375;52.486;13.424;2023-07-31T06:07:05;17.10;99.90
8676;DHT22;4375;52.486;13.424;2023-07-31T06:09:31;17.10;99.90
8676;DHT22;4375;52.486;13.424;2023-07-31T06:11:57;17.20;99.90
8676;DHT22;4375;52.486;13.424;2023-07-31T06:14:25;17.10;99.90
8676;DHT22;4375;52.486;13.424;2023-07-31T06:16:51;17.10;99.90
8676;DHT22;4375;52.486;13.424;2023-07-31T06:19:16;17.20;99.90
8676;DHT22;4375;52.486;13.424;2023-07-31T06:21:42;17.20;99.90
8676;DHT22;4375;52.486;13.424;2023-07-31T06:24:09;17.30;99.90
8676;DHT22;4375;52.486;13.424;2023-07-31T06:26:34;17.30;99.90
8676;DHT22;4375;52.486;13.424;2023-07-31T06:29:00;17.30;99.90
8676;DHT22;4375;52.486;13.424;2023-07-31T06:31:26;17.30;99.90
8676;DHT22;4375;52.486;13.424;2023-07-31T06:33:52;17.40;99.90
8676;DHT22;4375;52.486;13.424;2023-07-31T06:36:18;17.40;99.90
8676;DHT22;4375;52.486;13.424;2023-07-31T06:38:44;17.40;99.90
8676;DHT22;4375;52.486;13.424;2023-07-31T06:41:09;17.40;99.90
8676;DHT22;4375;52.486;13.424;2023-07-31T06:43:36;17.50;99.90
8676;DHT22;4375;52.486;13.424;2023-07-31T06:46:05;17.70;99.90
8676;DHT22;4375;52.486;13.424;2023-07-31T06:48:32;17.70;99.90
8676;DHT22;4375;52.486;13.424;2023-07-31T06:50:58;17.80;99.90
8676;DHT22;4375;52.486;13.424;2023-07-31T06:53:24;17.90;99.90
8676;DHT22;4375;52.486;13.424;2023-07-31T06:55:49;18.00;99.90
8676;DHT22;4375;52.486;13.424;2023-07-31T06:58:17;18.00;99.90
8676;DHT22;4375;52.486;13.424;2023-07-31T07:00:42;17.90;99.90
8676;DHT22;4375;52.486;13.424;2023-07-31T07:03:08;17.70;99.90
8676;DHT22;4375;52.486;13.424;2023-07-31T07:05:34;17.90;99.90
8676;DHT22;4375;52.486;13.424;2023-07-31T07:08:00;17.80;99.90
8676;DHT22;4375;52.486;13.424;2023-07-31T07:10:25;17.70;99.90
8676;DHT22;4375;52.486;13.424;2023-07-31T07:12:51;17.70;99.90
8676;DHT22;4375;52.486;13.424;2023-07-31T07:15:17;17.70;99.90
8676;DHT22;4375;52.486;13.424;2023-07-31T07:17:42;17.70;99.90
8676;DHT22;4375;52.486;13.424;2023-07-31T07:20:08;17.70;99.90
8676;DHT22;4375;52.486;13.424;2023-07-31T07:22:34;17.70;99.90
8676;DHT22;4375;52.486;13.424;2023-07-31T07:25:00;17.60;99.90
8676;DHT22;4375;52.486;13.424;2023-07-31T07:27:25;17.70;99.90
8676;DHT22;4375;52.486;13.424;2023-07-31T07:29:51;17.80;99.90
8676;DHT22;4375;52.486;13.424;2023-07-31T07:32:18;17.90;99.90
8676;DHT22;4375;52.486;13.424;2023-07-31T07:34:44;18.10;99.90
8676;DHT22;4375;52.486;13.424;2023-07-31T07:37:09;18.30;99.90
8676;DHT22;4375;52.486;13.424;2023-07-31T07:39:35;18.50;99.90
8676;DHT22;4375;52.486;13.424;2023-07-31T07:42:00;18.50;99.90
8676;DHT22;4375;52.486;13.424;2023-07-31T07:44:26;18.90;99.90
8676;DHT22;4375;52.486;13.424;2023-07-31T07:46:52;19.30;99.90
8676;DHT22;4375;52.486;13.424;2023-07-31T07:49:18;19.40;99.90
8676;DHT22;4375;52.486;13.424;2023-07-31T07:51:43;19.20;99.90
8676;DHT22;4375;52.486;13.424;2023-07-31T07:54:09;19.40;99.90
8676;DHT22;4375;52.486;13.424;2023-07-31T07:56:35;19.40;99.90
8676;DHT22;4375;52.486;13.424;2023-07-31T07:59:01;19.30;99.90
8676;DHT22;4375;52.486;13.424;2023-07-31T08:01:27;19.20;99.90
8676;DHT22;4375;52.486;13.424;2023-07-31T08:03:53;19.00;99.90
8676;DHT22;4375;52.486;13.424;2023-07-31T08:06:18;18.90;99.90
8676;DHT22;4375;52.486;13.424;2023-07-31T08:08:44;18.90;99.90
8676;DHT22;4375;52.486;13.424;2023-07-31T08:11:10;18.90;99.90
8676;DHT22;4375;52.486;13.424;2023-07-31T08:13:35;18.70;99.90
8676;DHT22;4375;52.486;13.424;2023-07-31T08:16:04;18.60;99.90
8676;DHT22;4375;52.486;13.424;2023-07-31T08:18:37;18.60;99.90
8676;DHT22;4375;52.486;13.424;2023-07-31T08:21:03;18.60;99.90
8676;DHT22;4375;52.486;13.424;2023-07-31T08:23:29;18.40;99.90
8676;DHT22;4375;52.486;13.424;2023-07-31T08:25:54;18.40;99.90
8676;DHT22;4375;52.486;13.424;2023-07-31T08:28:20;18.50;99.90
8676;DHT22;4375;52.486;13.424;2023-07-31T08:30:46;18.60;99.90
8676;DHT22;4375;52.486;13.424;2023-07-31T08:33:12;18.50;99.90
8676;DHT22;4375;52.486;13.424;2023-07-31T08:35:37;18.50;99.90
8676;DHT22;4375;52.486;13.424;2023-07-31T08:38:03;18.50;99.90
8676;DHT22;4375;52.486;13.424;2023-07-31T08:40:29;18.60;99.90
8676;DHT22;4375;52.486;13.424;2023-07-31T08:42:55;18.60;99.90
8676;DHT22;4375;52.486;13.424;2023-07-31T08:45:28;18.80;99.90
8676;DHT22;4375;52.486;13.424;2023-07-31T08:47:54;18.70;99.90
8676;DHT22;4375;52.486;13.424;2023-07-31T08:50:21;18.50;99.90
8676;DHT22;4375;52.486;13.424;2023-07-31T08:52:51;18.70;99.90
8676;DHT22;4375;52.486;13.424;2023-07-31T08:55:17;18.90;99.90
8676;DHT22;4375;52.486;13.424;2023-07-31T08:57:49;19.00;99.90
8676;DHT22;4375;52.486;13.424;2023-07-31T09:00:16;19.10;99.90
8676;DHT22;4375;52.486;13.424;2023-07-31T09:02:46;19.20;99.90
8676;DHT22;4375;52.486;13.424;2023-07-31T09:05:12;19.10;99.90
8676;DHT22;4375;52.486;13.424;2023-07-31T09:07:38;19.00;99.90
8676;DHT22;4375;52.486;13.424;2023-07-31T09:10:05;19.10;99.90
8676;DHT22;4375;52.486;13.424;2023-07-31T09:12:31;19.20;99.90
8676;DHT22;4375;52.486;13.424;2023-07-31T09:14:57;19.30;99.90
8676;DHT22;4375;52.486;13.424;2023-07-31T09:17:33;19.20;99.90
8676;DHT22;4375;52.486;13.424;2023-07-31T09:22:38;19.20;99.90
8676;DHT22;4375;52.486;13.424;2023-07-31T09:28:05;19.10;99.90
8676;DHT22;4375;52.486;13.424;2023-07-31T09:30:32;19.20;99.90
8676;DHT22;4375;52.486;13.424;2023-07-31T09:33:09;19.00;99.90
8676;DHT22;4375;52.486;13.424;2023-07-31T09:35:35;18.90;99.90
8676;DHT22;4375;52.486;13.424;2023-07-31T09:38:06;18.70;99.90
8676;DHT22;4375;52.486;13.424;2023-07-31T09:40:34;18.60;99.90
8676;DHT22;4375;52.486;13.424;2023-07-31T09:43:02;18.50;99.90
8676;DHT22;4375;52.486;13.424;2023-07-31T09:45:29;18.50;99.90
8676;DHT22;4375;52.486;13.424;2023-07-31T09:47:56;18.60;99.90
8676;DHT22;4375;52.486;13.424;2023-07-31T09:50:23;18.40;99.90
8676;DHT22;4375;52.486;13.424;2023-07-31T09:52:50;18.50;99.90
8676;DHT22;4375;52.486;13.424;2023-07-31T09:55:16;18.70;99.90
8676;DHT22;4375;52.486;13.424;2023-07-31T09:57:44;18.80;99.90
8676;DHT22;4375;52.486;13.424;2023-07-31T10:00:13;18.70;99.90
8676;DHT22;4375;52.486;13.424;2023-07-31T10:02:39;18.70;99.90
8676;DHT22;4375;52.486;13.424;2023-07-31T10:05:06;18.50;99.90
8676;DHT22;4375;52.486;13.424;2023-07-31T10:07:37;18.60;99.90
8676;DHT22;4375;52.486;13.424;2023-07-31T10:10:07;18.70;99.90
8676;DHT22;4375;52.486;13.424;2023-07-31T10:12:34;18.80;99.90
8676;DHT22;4375;52.486;13.424;2023-07-31T10:15:01;18.90;99.90
8676;DHT22;4375;52.486;13.424;2023-07-31T10:17:29;19.30;99.90
8676;DHT22;4375;52.486;13.424;2023-07-31T10:19:57;19.40;99.90
8676;DHT22;4375;52.486;13.424;2023-07-31T10:22:24;19.40;99.90
8676;DHT22;4375;52.486;13.424;2023-07-31T10:24:52;19.30;99.90
8676;DHT22;4375;52.486;13.424;2023-07-31T10:27:20;19.20;99.90
8676;DHT22;4375;52.486;13.424;2023-07-31T10:29:46;19.20;99.90
8676;DHT22;4375;52.486;13.424;2023-07-31T10:32:14;19.00;99.90
8676;DHT22;4375;52.486;13.424;2023-07-31T10:34:41;19.10;99.90
8676;DHT22;4375;52.486;13.424;2023-07-31T10:37:40;19.10;99.90
8676;DHT22;4375;52.486;13.424;2023-07-31T10:40:11;19.40;99.90
8676;DHT22;4375;52.486;13.424;2023-07-31T10:42:49;19.60;99.90
8676;DHT22;4375;52.486;13.424;2023-07-31T10:45:33;19.80;99.90
8676;DHT22;4375;52.486;13.424;2023-07-31T10:48:14;19.90;99.90
8676;DHT22;4375;52.486;13.424;2023-07-31T10:50:55;20.30;99.90
8676;DHT22;4375;52.486;13.424;2023-07-31T10:53:30;20.50;99.90
8676;DHT22;4375;52.486;13.424;2023-07-31T10:56:04;20.90;99.90
8676;DHT22;4375;52.486;13.424;2023-07-31T10:58:30;21.30;99.90
8676;DHT22;4375;52.486;13.424;2023-07-31T11:01:01;21.40;99.90
8676;DHT22;4375;52.486;13.424;2023-07-31T11:03:46;21.50;99.90
8676;DHT22;4375;52.486;13.424;2023-07-31T11:06:13;21.40;99.90
8676;DHT22;4375;52.486;13.424;2023-07-31T11:08:47;21.70;99.90
8676;DHT22;4375;52.486;13.424;2023-07-31T11:11:14;21.90;99.90
8676;DHT22;4375;52.486;13.424;2023-07-31T11:13:44;21.90;99.90
8676;DHT22;4375;52.486;13.424;2023-07-31T11:16:11;21.70;99.90
8676;DHT22;4375;52.486;13.424;2023-07-31T11:18:41;21.40;99.90
8676;DHT22;4375;52.486;13.424;2023-07-31T11:21:11;21.30;99.90
8676;DHT22;4375;52.486;13.424;2023-07-31T11:23:37;21.30;99.90
8676;DHT22;4375;52.486;13.424;2023-07-31T11:26:05;21.20;99.90
8676;DHT22;4375;52.486;13.424;2023-07-31T11:28:33;21.30;99.90
8676;DHT22;4375;52.486;13.424;2023-07-31T11:31:03;21.50;99.90
8676;DHT22;4375;52.486;13.424;2023-07-31T11:33:28;21.60;99.90
8676;DHT22;4375;52.486;13.424;2023-07-31T11:35:54;21.70;99.90
8676;DHT22;4375;52.486;13.424;2023-07-31T11:38:28;21.60;99.90
8676;DHT22;4375;52.486;13.424;2023-07-31T11:40:57;21.70;99.90
8676;DHT22;4375;52.486;13.424;2023-07-31T11:43:23;21.70;99.90
8676;DHT22;4375;52.486;13.424;2023-07-31T11:45:51;21.80;99.90
8676;DHT22;4375;52.486;13.424;2023-07-31T11:48:24;21.70;99.90
8676;DHT22;4375;52.486;13.424;2023-07-31T11:51:00;21.50;99.90
8676;DHT22;4375;52.486;13.424;2023-07-31T11:56:02;21.30;99.90
8676;DHT22;4375;52.486;13.424;2023-07-31T11:58:31;21.30;99.90
8676;DHT22;4375;52.486;13.424;2023-07-31T12:00:57;21.20;99.90
8676;DHT22;4375;52.486;13.424;2023-07-31T12:03:23;21.10;99.90
8676;DHT22;4375;52.486;13.424;2023-07-31T12:05:49;21.10;99.90
8676;DHT22;4375;52.486;13.424;2023-07-31T12:08:15;21.00;99.90
8676;DHT22;4375;52.486;13.424;2023-07-31T12:10:41;21.00;99.90
8676;DHT22;4375;52.486;13.424;2023-07-31T12:13:12;20.90;99.90
8676;DHT22;4375;52.486;13.424;2023-07-31T12:15:45;21.10;99.90
8676;DHT22;4375;52.486;13.424;2023-07-31T12:18:15;21.30;99.90
8676;DHT22;4375;52.486;13.424;2023-07-31T12:20:45;21.60;99.90
8676;DHT22;4375;52.486;13.424;2023-07-31T12:23:15;21.70;99.90
8676;DHT22;4375;52.486;13.424;2023-07-31T12:25:42;21.70;99.90
8676;DHT22;4375;52.486;13.424;2023-07-31T12:28:07;21.70;99.90
8676;DHT22;4375;52.486;13.424;2023-07-31T12:30:38;21.60;99.90
8676;DHT22;4375;52.486;13.424;2023-07-31T12:33:14;21.60;99.90
8676;DHT22;4375;52.486;13.424;2023-07-31T12:35:45;21.70;99.90
8676;DHT22;4375;52.486;13.424;2023-07-31T12:38:12;21.70;99.90
8676;DHT22;4375;52.486;13.424;2023-07-31T12:40:39;21.80;99.90
8676;DHT22;4375;52.486;13.424;2023-07-31T12:43:06;22.00;99.90
8676;DHT22;4375;52.486;13.424;2023-07-31T12:45:32;22.00;99.90
8676;DHT22;4375;52.486;13.424;2023-07-31T12:47:59;22.10;99.90
8676;DHT22;4375;52.486;13.424;2023-07-31T12:50:25;21.90;99.90
8676;DHT22;4375;52.486;13.424;2023-07-31T12:52:52;22.00;99.90
8676;DHT22;4375;52.486;13.424;2023-07-31T12:55:18;22.00;99.90
8676;DHT22;4375;52.486;13.424;2023-07-31T12:57:44;21.90;99.90
8676;DHT22;4375;52.486;13.424;2023-07-31T13:00:10;22.00;99.90
8676;DHT22;4375;52.486;13.424;2023-07-31T13:02:36;22.00;99.90
8676;DHT22;4375;52.486;13.424;2023-07-31T13:05:02;21.90;99.90
8676;DHT22;4375;52.486;13.424;2023-07-31T13:07:28;21.90;99.90
8676;DHT22;4375;52.486;13.424;2023-07-31T13:09:53;21.90;99.90
8676;DHT22;4375;52.486;13.424;2023-07-31T13:12:19;21.70;99.90
8676;DHT22;4375;52.486;13.424;2023-07-31T13:14:44;21.50;99.90
8676;DHT22;4375;52.486;13.424;2023-07-31T13:17:10;21.40;99.90
8676;DHT22;4375;52.486;13.424;2023-07-31T13:19:36;21.40;99.90
8676;DHT22;4375;52.486;13.424;2023-07-31T13:22:01;21.40;99.90
8676;DHT22;4375;52.486;13.424;2023-07-31T13:24:27;21.60;99.90
8676;DHT22;4375;52.486;13.424;2023-07-31T13:26:53;21.50;99.90
8676;DHT22;4375;52.486;13.424;2023-07-31T13:29:18;21.20;99.90
8676;DHT22;4375;52.486;13.424;2023-07-31T13:31:44;21.10;99.90
8676;DHT22;4375;52.486;13.424;2023-07-31T13:34:10;21.10;99.90
8676;DHT22;4375;52.486;13.424;2023-07-31T13:36:35;21.10;99.90
8676;DHT22;4375;52.486;13.424;2023-07-31T13:39:02;21.20;99.90
8676;DHT22;4375;52.486;13.424;2023-07-31T13:41:28;21.60;99.90
8676;DHT22;4375;52.486;13.424;2023-07-31T13:43:53;21.80;99.90
8676;DHT22;4375;52.486;13.424;2023-07-31T13:46:19;22.00;99.90
8676;DHT22;4375;52.486;13.424;2023-07-31T13:48:45;22.10;99.90
8676;DHT22;4375;52.486;13.424;2023-07-31T13:51:10;22.10;99.90
8676;DHT22;4375;52.486;13.424;2023-07-31T13:53:36;22.10;99.90
8676;DHT22;4375;52.486;13.424;2023-07-31T13:56:01;22.20;99.90
8676;DHT22;4375;52.486;13.424;2023-07-31T13:58:27;22.20;99.90
8676;DHT22;4375;52.486;13.424;2023-07-31T14:00:53;22.20;99.90
8676;DHT22;4375;52.486;13.424;2023-07-31T14:03:18;22.10;99.90
8676;DHT22;4375;52.486;13.424;2023-07-31T14:05:44;22.10;99.90
8676;DHT22;4375;52.486;13.424;2023-07-31T14:08:10;22.10;99.90
8676;DHT22;4375;52.486;13.424;2023-07-31T14:10:35;21.90;99.90
8676;DHT22;4375;52.486;13.424;2023-07-31T14:13:01;21.80;99.90
8676;DHT22;4375;52.486;13.424;2023-07-31T14:15:29;21.90;99.90
8676;DHT22;4375;52.486;13.424;2023-07-31T14:17:54;22.10;99.90
8676;DHT22;4375;52.486;13.424;2023-07-31T14:20:20;22.30;99.90
8676;DHT22;4375;52.486;13.424;2023-07-31T14:22:45;22.30;99.90
8676;DHT22;4375;52.486;13.424;2023-07-31T14:25:11;22.40;99.90
8676;DHT22;4375;52.486;13.424;2023-07-31T14:27:37;22.20;99.90
8676;DHT22;4375;52.486;13.424;2023-07-31T14:30:03;22.10;99.90
8676;DHT22;4375;52.486;13.424;2023-07-31T14:32:29;21.80;99.90
8676;DHT22;4375;52.486;13.424;2023-07-31T14:34:54;21.70;99.90
8676;DHT22;4375;52.486;13.424;2023-07-31T14:37:20;21.60;99.90
8676;DHT22;4375;52.486;13.424;2023-07-31T14:39:46;21.70;99.90
8676;DHT22;4375;52.486;13.424;2023-07-31T14:42:12;21.80;99.90
8676;DHT22;4375;52.486;13.424;2023-07-31T14:44:38;21.90;99.90
8676;DHT22;4375;52.486;13.424;2023-07-31T14:47:03;22.00;99.90
8676;DHT22;4375;52.486;13.424;2023-07-31T14:49:29;22.00;99.90
8676;DHT22;4375;52.486;13.424;2023-07-31T14:51:55;21.90;99.90
8676;DHT22;4375;52.486;13.424;2023-07-31T14:54:21;22.00;99.90
8676;DHT22;4375;52.486;13.424;2023-07-31T14:56:46;22.10;99.90
8676;DHT22;4375;52.486;13.424;2023-07-31T14:59:12;22.10;99.90
8676;DHT22;4375;52.486;13.424;2023-07-31T15:01:38;22.10;99.90
8676;DHT22;4375;52.486;13.424;2023-07-31T15:04:04;22.00;99.90
8676;DHT22;4375;52.486;13.424;2023-07-31T15:06:29;21.80;99.90
8676;DHT22;4375;52.486;13.424;2023-07-31T15:08:55;21.70;99.90
8676;DHT22;4375;52.486;13.424;2023-07-31T15:11:21;21.60;99.90
8676;DHT22;4375;52.486;13.424;2023-07-31T15:13:46;21.60;99.90
8676;DHT22;4375;52.486;13.424;2023-07-31T15:16:12;21.60;99.90
8676;DHT22;4375;52.486;13.424;2023-07-31T15:18:38;21.50;99.90
8676;DHT22;4375;52.486;13.424;2023-07-31T15:21:04;21.40;99.90
8676;DHT22;4375;52.486;13.424;2023-07-31T15:23:31;21.50;99.90
8676;DHT22;4375;52.486;13.424;2023-07-31T15:25:56;21.40;99.90
8676;DHT22;4375;52.486;13.424;2023-07-31T15:28:22;21.30;99.90
8676;DHT22;4375;52.486;13.424;2023-07-31T15:30:48;21.30;99.90
8676;DHT22;4375;52.486;13.424;2023-07-31T15:33:14;21.40;99.90
8676;DHT22;4375;52.486;13.424;2023-07-31T15:35:40;21.40;99.90
8676;DHT22;4375;52.486;13.424;2023-07-31T15:38:06;21.50;99.90
8676;DHT22;4375;52.486;13.424;2023-07-31T15:40:32;21.50;99.90
8676;DHT22;4375;52.486;13.424;2023-07-31T15:42:57;21.40;99.90
8676;DHT22;4375;52.486;13.424;2023-07-31T15:45:23;21.30;99.90
8676;DHT22;4375;52.486;13.424;2023-07-31T15:47:49;21.30;99.90
8676;DHT22;4375;52.486;13.424;2023-07-31T15:50:14;21.50;99.90
8676;DHT22;4375;52.486;13.424;2023-07-31T15:52:40;21.50;99.90
8676;DHT22;4375;52.486;13.424;2023-07-31T15:55:06;21.60;99.90